createdAt,value
2019-03-10T00:00:04.491Z,980.77
2019-03-10T00:01:04.474Z,980.81
2019-03-10T00:02:04.426Z,980.72
2019-03-10T00:03:04.381Z,980.74
2019-03-10T00:04:04.324Z,980.77
2019-03-10T00:05:04.321Z,980.78
2019-03-10T00:06:04.251Z,980.74
2019-03-10T00:07:04.225Z,980.69
2019-03-10T00:08:04.225Z,980.69
2019-03-10T00:09:04.126Z,980.70
2019-03-10T00:10:04.101Z,980.70
2019-03-10T00:11:04.060Z,980.69
2019-03-10T00:12:04.036Z,980.65
2019-03-10T00:13:03.984Z,980.63
2019-03-10T00:14:03.932Z,980.58
2019-03-10T00:15:03.898Z,980.50
2019-03-10T00:16:03.892Z,980.52
2019-03-10T00:17:03.825Z,980.53
2019-03-10T00:18:03.798Z,980.53
2019-03-10T00:19:03.748Z,980.56
2019-03-10T00:20:03.687Z,980.58
2019-03-10T00:21:03.659Z,980.56
2019-03-10T00:22:03.614Z,980.52
2019-03-10T00:23:03.570Z,980.55
2019-03-10T00:24:03.544Z,980.57
2019-03-10T00:25:03.503Z,980.57
2019-03-10T00:26:03.454Z,980.56
2019-03-10T00:27:03.439Z,980.61
2019-03-10T00:28:03.382Z,980.59
2019-03-10T00:29:03.348Z,980.60
2019-03-10T00:30:03.290Z,980.59
2019-03-10T00:31:03.255Z,980.54
2019-03-10T00:32:03.249Z,980.57
2019-03-10T00:33:03.187Z,980.58
2019-03-10T00:34:03.137Z,980.53
2019-03-10T00:35:03.088Z,980.57
2019-03-10T00:36:03.045Z,980.53
2019-03-10T00:37:03.039Z,980.58
2019-03-10T00:38:02.977Z,980.52
2019-03-10T00:39:02.940Z,980.51
2019-03-10T00:40:02.899Z,980.52
2019-03-10T00:41:02.841Z,980.51
2019-03-10T00:42:02.807Z,980.47
2019-03-10T00:43:02.800Z,980.48
2019-03-10T00:44:02.740Z,980.46
2019-03-10T00:45:02.695Z,980.47
2019-03-10T00:46:02.664Z,980.46
2019-03-10T00:47:02.622Z,980.44
2019-03-10T00:48:02.574Z,980.40
2019-03-10T00:49:02.539Z,980.37
2019-03-10T00:50:02.507Z,980.40
2019-03-10T00:51:02.450Z,980.42
2019-03-10T00:52:02.408Z,980.40
2019-03-10T00:53:02.406Z,980.44
2019-03-10T00:54:02.331Z,980.40
2019-03-10T00:55:02.340Z,980.36
2019-03-10T00:56:02.279Z,980.40
2019-03-10T00:57:02.225Z,980.41
2019-03-10T00:58:02.192Z,980.38
2019-03-10T00:59:02.148Z,980.40
2019-03-10T01:00:02.101Z,980.35
2019-03-10T01:01:02.069Z,980.41
2019-03-10T01:02:02.033Z,980.39
2019-03-10T01:03:01.985Z,980.37
2019-03-10T01:04:01.930Z,980.38
2019-03-10T01:05:01.909Z,980.39
2019-03-10T01:06:01.862Z,980.41
2019-03-10T01:07:01.981Z,980.43
2019-03-10T01:08:01.781Z,980.39
2019-03-10T01:09:01.729Z,980.36
2019-03-10T01:10:01.689Z,980.36
2019-03-10T01:11:01.669Z,980.41
2019-03-10T01:12:01.634Z,980.34
2019-03-10T01:13:01.578Z,980.32
2019-03-10T01:14:01.570Z,980.28
2019-03-10T01:15:03.086Z,980.26
2019-03-10T01:16:01.486Z,980.26
2019-03-10T01:17:01.412Z,980.28
2019-03-10T01:18:01.380Z,980.24
2019-03-10T01:19:01.328Z,980.26
2019-03-10T01:20:01.316Z,980.27
2019-03-10T01:21:01.254Z,980.30
2019-03-10T01:22:01.245Z,980.28
2019-03-10T01:23:01.256Z,980.25
2019-03-10T01:24:01.149Z,980.31
2019-03-10T01:25:01.093Z,980.35
2019-03-10T01:26:01.067Z,980.30
2019-03-10T01:27:01.015Z,980.27
2019-03-10T01:28:00.979Z,980.25
2019-03-10T01:29:00.932Z,980.28
2019-03-10T01:30:00.895Z,980.25
2019-03-10T01:31:00.852Z,980.21
2019-03-10T01:32:00.827Z,980.18
2019-03-10T01:33:00.790Z,980.23
2019-03-10T01:34:00.901Z,980.23
2019-03-10T01:35:00.708Z,980.26
2019-03-10T01:36:00.655Z,980.21
2019-03-10T01:37:00.630Z,980.18
2019-03-10T01:38:00.594Z,980.15
2019-03-10T01:39:00.581Z,980.15
2019-03-10T01:40:00.503Z,980.13
2019-03-10T01:41:00.459Z,980.11
2019-03-10T01:42:00.420Z,980.12
2019-03-10T01:43:00.387Z,980.11
2019-03-10T01:44:00.359Z,980.07
2019-03-10T01:45:00.537Z,980.07
2019-03-10T01:46:00.301Z,980.03
2019-03-10T01:47:00.235Z,980.04
2019-03-10T01:48:00.209Z,980.03
2019-03-10T01:49:00.171Z,980.01
2019-03-10T01:50:00.180Z,979.92
2019-03-10T01:51:00.090Z,979.92
2019-03-10T01:52:00.039Z,979.94
2019-03-10T01:52:59.995Z,979.93
2019-03-10T01:53:59.947Z,979.86
2019-03-10T01:54:59.936Z,979.87
2019-03-10T01:55:59.889Z,979.84
2019-03-10T01:56:59.837Z,979.77
2019-03-10T01:57:59.858Z,979.73
2019-03-10T01:58:59.762Z,979.71
2019-03-10T01:59:59.752Z,979.70
2019-03-10T02:00:59.707Z,979.68
2019-03-10T02:01:59.651Z,979.68
2019-03-10T02:02:59.591Z,979.70
2019-03-10T02:03:59.565Z,979.65
2019-03-10T02:04:59.558Z,979.59
2019-03-10T02:05:59.532Z,979.61
2019-03-10T02:06:59.549Z,979.64
2019-03-10T02:07:59.464Z,979.61
2019-03-10T02:08:59.370Z,979.62
2019-03-10T02:09:59.324Z,979.66
2019-03-10T02:10:59.281Z,979.60
2019-03-10T02:11:59.229Z,979.65
2019-03-10T02:12:59.210Z,979.63
2019-03-10T02:13:59.167Z,979.63
2019-03-10T02:14:59.119Z,979.67
2019-03-10T02:15:59.115Z,979.67
2019-03-10T02:16:59.046Z,979.66
2019-03-10T02:17:59.002Z,979.63
2019-03-10T02:18:58.981Z,979.57
2019-03-10T02:19:58.924Z,979.62
2019-03-10T02:20:58.899Z,979.59
2019-03-10T02:21:58.892Z,979.55
2019-03-10T02:22:58.809Z,979.54
2019-03-10T02:23:58.776Z,979.55
2019-03-10T02:24:58.748Z,979.52
2019-03-10T02:25:58.706Z,979.50
2019-03-10T02:26:58.767Z,979.43
2019-03-10T02:27:58.627Z,979.45
2019-03-10T02:28:58.653Z,979.43
2019-03-10T02:29:58.541Z,979.42
2019-03-10T02:30:58.498Z,979.43
2019-03-10T02:31:58.451Z,979.40
2019-03-10T02:32:58.410Z,979.39
2019-03-10T02:33:58.373Z,979.39
2019-03-10T02:34:58.357Z,979.37
2019-03-10T02:35:58.334Z,979.36
2019-03-10T02:36:58.270Z,979.37
2019-03-10T02:37:58.231Z,979.42
2019-03-10T02:38:58.204Z,979.44
2019-03-10T02:39:58.143Z,979.44
2019-03-10T02:40:58.114Z,979.41
2019-03-10T02:41:58.079Z,979.34
2019-03-10T02:42:58.043Z,979.35
2019-03-10T02:43:58.005Z,979.33
2019-03-10T02:44:57.974Z,979.32
2019-03-10T02:45:57.973Z,979.27
2019-03-10T02:46:57.864Z,979.25
2019-03-10T02:47:57.860Z,979.21
2019-03-10T02:48:57.781Z,979.21
2019-03-10T02:49:57.732Z,979.23
2019-03-10T02:50:57.736Z,979.21
2019-03-10T02:51:57.676Z,979.23
2019-03-10T02:52:57.646Z,979.20
2019-03-10T02:53:57.609Z,979.16
2019-03-10T02:54:57.650Z,979.13
2019-03-10T02:55:57.522Z,979.11
2019-03-10T02:56:57.477Z,979.08
2019-03-10T02:57:57.437Z,979.00
2019-03-10T02:58:57.400Z,978.99
2019-03-10T02:59:57.434Z,978.96
2019-03-10T03:00:57.392Z,978.98
2019-03-10T03:01:57.293Z,978.95
2019-03-10T03:02:57.216Z,978.98
2019-03-10T03:03:57.209Z,978.92
2019-03-10T03:04:57.161Z,978.93
2019-03-10T03:05:57.130Z,978.88
2019-03-10T03:06:57.138Z,978.77
2019-03-10T03:07:57.089Z,978.80
2019-03-10T03:08:56.994Z,978.76
2019-03-10T03:09:56.953Z,978.79
2019-03-10T03:10:56.921Z,978.79
2019-03-10T03:11:56.863Z,978.74
2019-03-10T03:12:56.831Z,978.72
2019-03-10T03:13:56.837Z,978.71
2019-03-10T03:14:56.768Z,978.77
2019-03-10T03:15:56.726Z,978.74
2019-03-10T03:16:56.703Z,978.69
2019-03-10T03:17:56.647Z,978.68
2019-03-10T03:18:56.594Z,978.65
2019-03-10T03:19:56.569Z,978.61
2019-03-10T03:20:56.517Z,978.59
2019-03-10T03:21:56.502Z,978.58
2019-03-10T03:22:56.461Z,978.53
2019-03-10T03:23:56.407Z,978.53
2019-03-10T03:24:56.361Z,978.45
2019-03-10T03:25:56.491Z,978.43
2019-03-10T03:26:56.301Z,978.33
2019-03-10T03:27:56.329Z,978.37
2019-03-10T03:28:56.215Z,978.35
2019-03-10T03:29:56.236Z,978.39
2019-03-10T03:30:56.124Z,978.36
2019-03-10T03:31:56.117Z,978.38
2019-03-10T03:32:56.064Z,978.34
2019-03-10T03:33:56.028Z,978.31
2019-03-10T03:34:55.961Z,978.24
2019-03-10T03:35:55.910Z,978.22
2019-03-10T03:36:55.890Z,978.19
2019-03-10T03:37:55.852Z,978.19
2019-03-10T03:38:55.857Z,978.18
2019-03-10T03:39:55.752Z,978.16
2019-03-10T03:40:55.728Z,978.16
2019-03-10T03:41:55.692Z,978.10
2019-03-10T03:42:55.701Z,978.14
2019-03-10T03:43:55.601Z,978.11
2019-03-10T03:44:55.568Z,978.16
2019-03-10T03:45:55.673Z,978.11
2019-03-10T03:46:55.483Z,978.07
2019-03-10T03:47:55.463Z,978.09
2019-03-10T03:48:55.433Z,978.04
2019-03-10T03:49:55.363Z,978.04
2019-03-10T03:50:55.346Z,978.07
2019-03-10T03:51:55.279Z,978.06
2019-03-10T03:52:55.274Z,977.97
2019-03-10T03:53:55.261Z,977.91
2019-03-10T03:54:55.162Z,977.93
2019-03-10T03:55:55.123Z,977.90
2019-03-10T03:56:55.106Z,977.90
2019-03-10T03:57:55.066Z,977.89
2019-03-10T03:58:55.054Z,977.92
2019-03-10T03:59:54.968Z,977.89
2019-03-10T04:00:54.956Z,977.96
2019-03-10T04:01:54.917Z,977.96
2019-03-10T04:02:54.849Z,977.94
2019-03-10T04:03:54.849Z,977.90
2019-03-10T04:04:54.775Z,977.88
2019-03-10T04:05:54.774Z,977.85
2019-03-10T04:06:54.731Z,977.80
2019-03-10T04:07:54.652Z,977.82
2019-03-10T04:08:54.600Z,977.82
2019-03-10T04:09:54.581Z,977.80
2019-03-10T04:10:54.553Z,977.74
2019-03-10T04:11:54.506Z,977.70
2019-03-10T04:12:54.433Z,977.70
2019-03-10T04:13:54.443Z,977.69
2019-03-10T04:14:54.378Z,977.73
2019-03-10T04:15:54.369Z,977.65
2019-03-10T04:16:54.297Z,977.64
2019-03-10T04:17:54.257Z,977.61
2019-03-10T04:18:54.245Z,977.61
2019-03-10T04:19:54.168Z,977.58
2019-03-10T04:20:54.133Z,977.50
2019-03-10T04:21:54.096Z,977.55
2019-03-10T04:22:54.112Z,977.53
2019-03-10T04:23:53.997Z,977.54
2019-03-10T04:24:53.972Z,977.53
2019-03-10T04:25:53.917Z,977.53
2019-03-10T04:26:53.936Z,977.47
2019-03-10T04:27:53.843Z,977.49
2019-03-10T04:28:53.831Z,977.47
2019-03-10T04:29:53.800Z,977.47
2019-03-10T04:30:53.730Z,977.44
2019-03-10T04:31:53.725Z,977.47
2019-03-10T04:32:53.651Z,977.40
2019-03-10T04:33:53.647Z,977.40
2019-03-10T04:34:53.596Z,977.40
2019-03-10T04:35:53.541Z,977.36
2019-03-10T04:36:53.494Z,977.39
2019-03-10T04:37:53.448Z,977.35
2019-03-10T04:38:53.414Z,977.36
2019-03-10T04:39:53.360Z,977.32
2019-03-10T04:40:53.344Z,977.35
2019-03-10T04:41:53.300Z,977.31
2019-03-10T04:42:53.253Z,977.30
2019-03-10T04:43:53.216Z,977.29
2019-03-10T04:44:53.180Z,977.30
2019-03-10T04:45:53.154Z,977.28
2019-03-10T04:46:53.106Z,977.29
2019-03-10T04:47:53.066Z,977.23
2019-03-10T04:48:53.039Z,977.17
2019-03-10T04:49:53.009Z,977.17
2019-03-10T04:50:52.945Z,977.10
2019-03-10T04:51:52.893Z,977.08
2019-03-10T04:52:52.866Z,977.12
2019-03-10T04:53:52.824Z,977.16
2019-03-10T04:54:52.787Z,977.12
2019-03-10T04:55:52.749Z,977.09
2019-03-10T04:56:52.735Z,977.11
2019-03-10T04:57:52.649Z,977.04
2019-03-10T04:58:52.613Z,977.06
2019-03-10T04:59:52.585Z,977.06
2019-03-10T05:00:52.603Z,977.04
2019-03-10T05:01:52.531Z,977.08
2019-03-10T05:02:52.466Z,977.05
2019-03-10T05:03:52.403Z,977.04
2019-03-10T05:04:52.388Z,977.06
2019-03-10T05:05:52.462Z,977.01
2019-03-10T05:06:52.299Z,977.00
2019-03-10T05:07:52.261Z,976.98
2019-03-10T05:08:52.249Z,976.93
2019-03-10T05:09:52.170Z,976.93
2019-03-10T05:10:52.165Z,976.95
2019-03-10T05:11:52.097Z,976.95
2019-03-10T05:12:52.084Z,976.92
2019-03-10T05:13:52.018Z,976.95
2019-03-10T05:14:51.984Z,976.96
2019-03-10T05:15:51.945Z,976.92
2019-03-10T05:16:51.891Z,976.93
2019-03-10T05:17:51.858Z,976.93
2019-03-10T05:18:51.819Z,976.91
2019-03-10T05:19:51.793Z,976.85
2019-03-10T05:20:51.820Z,976.85
2019-03-10T05:21:51.728Z,976.83
2019-03-10T05:22:51.672Z,976.83
2019-03-10T05:23:51.636Z,976.79
2019-03-10T05:24:51.600Z,976.77
2019-03-10T05:25:51.526Z,976.77
2019-03-10T05:26:51.598Z,976.75
2019-03-10T05:27:51.588Z,976.74
2019-03-10T05:28:51.459Z,976.70
2019-03-10T05:29:51.426Z,976.71
2019-03-10T05:30:51.396Z,976.68
2019-03-10T05:31:51.307Z,976.71
2019-03-10T05:32:51.245Z,976.66
2019-03-10T05:33:51.217Z,976.65
2019-03-10T05:34:51.185Z,976.61
2019-03-10T05:35:51.164Z,976.58
2019-03-10T05:36:51.114Z,976.57
2019-03-10T05:37:51.046Z,976.50
2019-03-10T05:38:51.034Z,976.45
2019-03-10T05:39:50.985Z,976.43
2019-03-10T05:40:50.945Z,976.41
2019-03-10T05:41:50.913Z,976.43
2019-03-10T05:42:50.861Z,976.39
2019-03-10T05:43:50.821Z,976.39
2019-03-10T05:44:50.781Z,976.35
2019-03-10T05:45:50.759Z,976.30
2019-03-10T05:46:50.709Z,976.28
2019-03-10T05:47:50.655Z,976.25
2019-03-10T05:48:50.648Z,976.25
2019-03-10T05:49:50.635Z,976.21
2019-03-10T05:50:50.643Z,976.19
2019-03-10T05:51:50.501Z,976.18
2019-03-10T05:52:50.481Z,976.22
2019-03-10T05:53:50.455Z,976.19
2019-03-10T05:54:50.391Z,976.17
2019-03-10T05:55:50.347Z,976.14
2019-03-10T05:56:50.297Z,976.12
2019-03-10T05:57:50.268Z,976.07
2019-03-10T05:58:50.242Z,976.07
2019-03-10T05:59:50.224Z,976.03
2019-03-10T06:00:50.204Z,975.97
2019-03-10T06:01:50.112Z,975.98
2019-03-10T06:02:50.085Z,975.93
2019-03-10T06:03:50.058Z,975.90
2019-03-10T06:04:49.994Z,975.91
2019-03-10T06:05:49.945Z,975.85
2019-03-10T06:06:49.962Z,975.79
2019-03-10T06:07:49.939Z,975.74
2019-03-10T06:08:49.866Z,975.66
2019-03-10T06:09:49.788Z,975.68
2019-03-10T06:10:49.751Z,975.62
2019-03-10T06:11:49.720Z,975.56
2019-03-10T06:12:49.792Z,975.47
2019-03-10T06:13:49.630Z,975.46
2019-03-10T06:14:49.629Z,975.43
2019-03-10T06:15:49.551Z,975.39
2019-03-10T06:16:49.594Z,975.35
2019-03-10T06:17:49.505Z,975.31
2019-03-10T06:18:49.453Z,975.30
2019-03-10T06:19:49.405Z,975.29
2019-03-10T06:20:49.421Z,975.29
2019-03-10T06:21:49.355Z,975.30
2019-03-10T06:22:49.324Z,975.29
2019-03-10T06:23:49.281Z,975.31
2019-03-10T06:24:49.210Z,975.32
2019-03-10T06:25:49.169Z,975.32
2019-03-10T06:26:49.122Z,975.32
2019-03-10T06:27:49.122Z,975.37
2019-03-10T06:28:50.861Z,975.38
2019-03-10T06:29:49.014Z,975.36
2019-03-10T06:30:48.961Z,975.32
2019-03-10T06:31:48.936Z,975.28
2019-03-10T06:32:48.909Z,975.23
2019-03-10T06:33:48.866Z,975.21
2019-03-10T06:34:48.807Z,975.20
2019-03-10T06:35:48.823Z,975.25
2019-03-10T06:36:48.724Z,975.27
2019-03-10T06:37:48.694Z,975.25
2019-03-10T06:38:48.653Z,975.27
2019-03-10T06:39:48.617Z,975.37
2019-03-10T06:40:48.562Z,975.48
2019-03-10T06:41:48.527Z,975.47
2019-03-10T06:42:48.520Z,975.35
2019-03-10T06:43:48.455Z,975.32
2019-03-10T06:44:48.417Z,975.34
2019-03-10T06:45:48.381Z,975.36
2019-03-10T06:46:48.329Z,975.35
2019-03-10T06:47:48.391Z,975.30
2019-03-10T06:48:48.326Z,975.31
2019-03-10T06:49:48.225Z,975.31
2019-03-10T06:50:48.189Z,975.29
2019-03-10T06:51:48.140Z,975.32
2019-03-10T06:52:48.132Z,975.32
2019-03-10T06:53:48.076Z,975.34
2019-03-10T06:54:48.136Z,975.31
2019-03-10T06:55:48.170Z,975.31
2019-03-10T06:56:47.943Z,975.22
2019-03-10T06:57:47.939Z,975.30
2019-03-10T06:58:47.930Z,975.34
2019-03-10T06:59:49.799Z,975.27
2019-03-10T07:00:47.801Z,975.24
2019-03-10T07:01:47.737Z,975.24
2019-03-10T07:02:47.733Z,975.23
2019-03-10T07:03:47.662Z,975.15
2019-03-10T07:04:47.620Z,975.14
2019-03-10T07:05:47.601Z,975.10
2019-03-10T07:06:47.539Z,975.13
2019-03-10T07:07:47.499Z,975.11
2019-03-10T07:08:47.492Z,975.08
2019-03-10T07:09:47.422Z,975.07
2019-03-10T07:10:47.367Z,975.05
2019-03-10T07:11:47.349Z,974.98
2019-03-10T07:12:47.305Z,975.02
2019-03-10T07:13:47.262Z,975.00
2019-03-10T07:14:47.223Z,974.93
2019-03-10T07:15:47.182Z,974.93
2019-03-10T07:16:47.165Z,974.95
2019-03-10T07:17:47.118Z,974.95
2019-03-10T07:18:47.080Z,974.90
2019-03-10T07:19:47.021Z,974.84
2019-03-10T07:20:47.000Z,974.81
2019-03-10T07:21:46.941Z,974.79
2019-03-10T07:22:46.954Z,974.79
2019-03-10T07:23:46.885Z,974.76
2019-03-10T07:24:46.835Z,974.72
2019-03-10T07:25:46.795Z,974.74
2019-03-10T07:26:46.756Z,974.66
2019-03-10T07:27:46.710Z,974.68
2019-03-10T07:28:46.666Z,974.67
2019-03-10T07:29:46.661Z,974.66
2019-03-10T07:30:46.595Z,974.59
2019-03-10T07:31:46.602Z,974.63
2019-03-10T07:32:46.499Z,974.60
2019-03-10T07:33:46.512Z,974.60
2019-03-10T07:34:46.461Z,974.53
2019-03-10T07:35:46.401Z,974.53
2019-03-10T07:36:46.359Z,974.56
2019-03-10T07:37:46.358Z,974.51
2019-03-10T07:38:46.299Z,974.53
2019-03-10T07:39:46.221Z,974.52
2019-03-10T07:40:46.205Z,974.50
2019-03-10T07:41:46.158Z,974.46
2019-03-10T07:42:46.157Z,974.46
2019-03-10T07:43:46.169Z,974.45
2019-03-10T07:44:46.102Z,974.44
2019-03-10T07:45:46.027Z,974.35
2019-03-10T07:46:45.966Z,974.31
2019-03-10T07:47:45.945Z,974.31
2019-03-10T07:48:45.874Z,974.33
2019-03-10T07:49:45.873Z,974.29
2019-03-10T07:50:45.796Z,974.30
2019-03-10T07:51:45.791Z,974.28
2019-03-10T07:52:45.729Z,974.28
2019-03-10T07:53:45.709Z,974.26
2019-03-10T07:54:45.637Z,974.22
2019-03-10T07:55:45.631Z,974.20
2019-03-10T07:56:45.601Z,974.15
2019-03-10T07:57:45.552Z,974.12
2019-03-10T07:58:45.541Z,974.09
2019-03-10T07:59:45.487Z,974.00
2019-03-10T08:00:45.413Z,973.99
2019-03-10T08:01:45.369Z,973.98
2019-03-10T08:02:45.333Z,973.96
2019-03-10T08:03:45.374Z,973.95
2019-03-10T08:04:45.253Z,973.88
2019-03-10T08:05:45.248Z,973.92
2019-03-10T08:06:45.178Z,973.84
2019-03-10T08:07:45.192Z,973.82
2019-03-10T08:08:45.122Z,973.79
2019-03-10T08:09:45.057Z,973.75
2019-03-10T08:10:45.018Z,973.70
2019-03-10T08:11:45.037Z,973.62
2019-03-10T08:12:44.950Z,973.61
2019-03-10T08:13:44.899Z,973.59
2019-03-10T08:14:44.881Z,973.56
2019-03-10T08:15:44.836Z,973.52
2019-03-10T08:16:44.771Z,973.53
2019-03-10T08:17:44.751Z,973.53
2019-03-10T08:18:44.728Z,973.52
2019-03-10T08:19:44.699Z,973.52
2019-03-10T08:20:44.656Z,973.53
2019-03-10T08:21:44.612Z,973.54
2019-03-10T08:22:44.538Z,973.50
2019-03-10T08:23:44.535Z,973.48
2019-03-10T08:24:44.513Z,973.42
2019-03-10T08:25:44.480Z,973.32
2019-03-10T08:26:44.390Z,973.35
2019-03-10T08:27:44.455Z,973.29
2019-03-10T08:28:44.336Z,973.24
2019-03-10T08:29:44.475Z,973.22
2019-03-10T08:30:44.439Z,973.18
2019-03-10T08:31:44.414Z,973.11
2019-03-10T08:32:44.347Z,973.16
2019-03-10T08:33:44.186Z,973.12
2019-03-10T08:34:44.195Z,973.07
2019-03-10T08:35:44.154Z,973.12
2019-03-10T08:36:44.125Z,973.08
2019-03-10T08:37:44.005Z,973.08
2019-03-10T08:38:44.063Z,973.04
2019-03-10T08:39:44.080Z,973.00
2019-03-10T08:40:43.971Z,972.91
2019-03-10T08:41:44.031Z,972.90
2019-03-10T08:42:43.950Z,972.89
2019-03-10T08:43:43.906Z,972.85
2019-03-10T08:44:43.776Z,972.82
2019-03-10T08:45:43.719Z,972.80
2019-03-10T08:46:43.779Z,972.71
2019-03-10T08:47:43.642Z,972.68
2019-03-10T08:48:43.738Z,972.63
2019-03-10T08:49:45.443Z,972.63
2019-03-10T08:50:43.546Z,972.57
2019-03-10T08:51:43.495Z,972.56
2019-03-10T08:52:43.391Z,972.57
2019-03-10T08:53:43.490Z,972.45
2019-03-10T08:54:43.314Z,972.47
2019-03-10T08:55:43.296Z,972.44
2019-03-10T08:56:43.417Z,972.41
2019-03-10T08:57:43.362Z,972.36
2019-03-10T08:58:43.203Z,972.33
2019-03-10T08:59:43.193Z,972.31
2019-03-10T09:00:43.142Z,972.24
2019-03-10T09:01:43.302Z,972.20
2019-03-10T09:02:45.524Z,972.16
2019-03-10T09:03:43.120Z,972.08
2019-03-10T09:04:43.201Z,972.08
2019-03-10T09:05:42.938Z,972.05
2019-03-10T09:06:44.685Z,972.01
2019-03-10T09:07:42.947Z,971.88
2019-03-10T09:08:43.032Z,971.86
2019-03-10T09:09:42.865Z,971.84
2019-03-10T09:10:42.835Z,971.76
2019-03-10T09:11:42.678Z,971.71
2019-03-10T09:12:42.652Z,971.65
2019-03-10T09:13:42.646Z,971.62
2019-03-10T09:14:42.596Z,971.64
2019-03-10T09:15:42.524Z,971.63
2019-03-10T09:16:42.713Z,971.55
2019-03-10T09:17:42.511Z,971.50
2019-03-10T09:18:42.503Z,971.51
2019-03-10T09:19:42.407Z,971.47
2019-03-10T09:20:42.430Z,971.44
2019-03-10T09:21:42.300Z,971.34
2019-03-10T09:22:42.250Z,971.30
2019-03-10T09:23:42.225Z,971.32
2019-03-10T09:24:42.201Z,971.28
2019-03-10T09:25:42.138Z,971.24
2019-03-10T09:26:42.136Z,971.18
2019-03-10T09:27:42.077Z,971.18
2019-03-10T09:28:42.063Z,971.16
2019-03-10T09:29:42.023Z,971.14
2019-03-10T09:30:41.970Z,971.07
2019-03-10T09:31:41.917Z,971.08
2019-03-10T09:32:41.975Z,971.04
2019-03-10T09:33:41.866Z,971.06
2019-03-10T09:34:41.800Z,971.03
2019-03-10T09:35:41.827Z,970.99
2019-03-10T09:36:41.795Z,970.96
2019-03-10T09:37:41.796Z,970.92
2019-03-10T09:38:41.665Z,970.89
2019-03-10T09:39:41.648Z,970.89
2019-03-10T09:40:41.618Z,970.85
2019-03-10T09:41:41.526Z,970.84
2019-03-10T09:42:41.500Z,970.84
2019-03-10T09:43:41.467Z,970.80
2019-03-10T09:44:41.704Z,970.81
2019-03-10T09:45:41.445Z,970.77
2019-03-10T09:46:41.374Z,970.73
2019-03-10T09:47:41.361Z,970.73
2019-03-10T09:48:41.265Z,970.69
2019-03-10T09:49:41.361Z,970.64
2019-03-10T09:50:41.195Z,970.59
2019-03-10T09:51:41.164Z,970.57
2019-03-10T09:52:41.248Z,970.56
2019-03-10T09:53:41.159Z,970.51
2019-03-10T09:54:41.127Z,970.45
2019-03-10T09:55:41.345Z,970.41
2019-03-10T09:56:41.568Z,970.40
2019-03-10T09:57:40.957Z,970.36
2019-03-10T09:58:41.049Z,970.34
2019-03-10T09:59:40.918Z,970.26
2019-03-10T10:00:41.124Z,970.19
2019-03-10T10:01:40.838Z,970.21
2019-03-10T10:02:40.781Z,970.24
2019-03-10T10:03:40.724Z,970.28
2019-03-10T10:04:40.697Z,970.15
2019-03-10T10:05:40.678Z,970.10
2019-03-10T10:06:40.616Z,970.04
2019-03-10T10:07:40.583Z,970.02
2019-03-10T10:08:40.537Z,970.11
2019-03-10T10:09:40.495Z,970.08
2019-03-10T10:10:40.543Z,969.97
2019-03-10T10:11:40.421Z,969.84
2019-03-10T10:12:40.419Z,969.80
2019-03-10T10:13:40.405Z,969.80
2019-03-10T10:14:41.121Z,969.89
2019-03-10T10:15:40.315Z,969.79
2019-03-10T10:16:40.247Z,969.78
2019-03-10T10:17:40.192Z,969.76
2019-03-10T10:18:40.176Z,969.80
2019-03-10T10:19:40.363Z,969.74
2019-03-10T10:20:40.589Z,969.64
2019-03-10T10:21:40.090Z,969.56
2019-03-10T10:22:40.052Z,969.60
2019-03-10T10:23:40.077Z,969.64
2019-03-10T10:24:40.025Z,969.58
2019-03-10T10:25:39.947Z,969.53
2019-03-10T10:26:39.906Z,969.47
2019-03-10T10:27:39.907Z,969.43
2019-03-10T10:28:39.816Z,969.46
2019-03-10T10:29:39.788Z,969.38
2019-03-10T10:30:39.765Z,969.41
2019-03-10T10:31:39.733Z,969.42
2019-03-10T10:32:39.649Z,969.46
2019-03-10T10:33:39.647Z,969.44
2019-03-10T10:34:39.557Z,969.36
2019-03-10T10:35:39.541Z,969.28
2019-03-10T10:36:39.581Z,969.29
2019-03-10T10:37:39.542Z,969.26
2019-03-10T10:38:39.439Z,969.23
2019-03-10T10:39:39.419Z,969.23
2019-03-10T10:40:39.363Z,969.16
2019-03-10T10:41:39.295Z,969.18
2019-03-10T10:42:39.403Z,969.22
2019-03-10T10:43:39.253Z,969.04
2019-03-10T10:44:39.288Z,968.95
2019-03-10T10:45:39.184Z,968.95
2019-03-10T10:46:39.179Z,968.99
2019-03-10T10:47:39.288Z,968.91
2019-03-10T10:48:39.645Z,969.01
2019-03-10T10:49:39.030Z,968.93
2019-03-10T10:50:39.275Z,968.99
2019-03-10T10:51:38.917Z,968.99
2019-03-10T10:52:38.909Z,968.91
2019-03-10T10:53:38.881Z,968.74
2019-03-10T10:54:38.837Z,968.84
2019-03-10T10:55:38.835Z,968.76
2019-03-10T10:56:38.814Z,968.70
2019-03-10T10:57:38.737Z,968.76
2019-03-10T10:58:38.690Z,968.71
2019-03-10T10:59:38.687Z,968.67
2019-03-10T11:00:38.610Z,968.70
2019-03-10T11:01:38.589Z,968.64
2019-03-10T11:02:38.591Z,968.62
2019-03-10T11:03:38.513Z,968.59
2019-03-10T11:04:38.492Z,968.53
2019-03-10T11:05:38.437Z,968.59
2019-03-10T11:06:38.415Z,968.51
2019-03-10T11:07:38.417Z,968.54
2019-03-10T11:08:38.357Z,968.57
2019-03-10T11:09:38.311Z,968.57
2019-03-10T11:10:38.300Z,968.56
2019-03-10T11:11:38.282Z,968.47
2019-03-10T11:12:38.264Z,968.49
2019-03-10T11:13:38.274Z,968.44
2019-03-10T11:14:38.174Z,968.34
2019-03-10T11:15:38.136Z,968.39
2019-03-10T11:16:38.085Z,968.39
2019-03-10T11:17:38.053Z,968.28
2019-03-10T11:18:38.040Z,968.30
2019-03-10T11:19:37.991Z,968.25
2019-03-10T11:20:37.975Z,968.28
2019-03-10T11:21:37.983Z,968.33
2019-03-10T11:22:37.900Z,968.39
2019-03-10T11:23:37.892Z,968.42
2019-03-10T11:24:37.850Z,968.28
2019-03-10T11:25:37.810Z,968.32
2019-03-10T11:26:37.827Z,968.37
2019-03-10T11:27:37.737Z,968.36
2019-03-10T11:28:37.729Z,968.40
2019-03-10T11:29:37.712Z,968.41
2019-03-10T11:30:37.645Z,968.44
2019-03-10T11:31:37.649Z,968.42
2019-03-10T11:32:37.579Z,968.41
2019-03-10T11:33:37.573Z,968.41
2019-03-10T11:34:37.538Z,968.42
2019-03-10T11:35:37.484Z,968.36
2019-03-10T11:36:37.824Z,968.36
2019-03-10T11:37:37.433Z,968.29
2019-03-10T11:38:37.431Z,968.24
2019-03-10T11:39:37.377Z,968.15
2019-03-10T11:40:37.343Z,968.09
2019-03-10T11:41:37.299Z,968.15
2019-03-10T11:42:37.272Z,968.00
2019-03-10T11:43:37.230Z,967.97
2019-03-10T11:44:37.219Z,968.03
2019-03-10T11:45:37.162Z,967.94
2019-03-10T11:46:37.157Z,967.94
2019-03-10T11:47:37.163Z,967.84
2019-03-10T11:48:37.076Z,967.76
2019-03-10T11:49:37.074Z,967.78
2019-03-10T11:50:37.058Z,967.75
2019-03-10T11:51:36.984Z,967.82
2019-03-10T11:52:37.652Z,967.72
2019-03-10T11:53:36.896Z,967.80
2019-03-10T11:54:36.867Z,967.74
2019-03-10T11:55:36.833Z,967.70
2019-03-10T11:56:36.827Z,967.49
2019-03-10T11:57:36.783Z,967.44
2019-03-10T11:58:36.734Z,967.54
2019-03-10T11:59:36.729Z,967.60
2019-03-10T12:00:36.695Z,967.58
2019-03-10T12:01:36.636Z,967.65
2019-03-10T12:02:36.603Z,967.60
2019-03-10T12:03:36.576Z,967.62
2019-03-10T12:04:36.549Z,967.62
2019-03-10T12:05:36.516Z,967.58
2019-03-10T12:06:36.461Z,967.65
2019-03-10T12:07:36.472Z,967.68
2019-03-10T12:08:36.394Z,967.71
2019-03-10T12:09:36.387Z,967.71
2019-03-10T12:10:36.356Z,967.80
2019-03-10T12:11:36.290Z,967.83
2019-03-10T12:12:36.291Z,967.84
2019-03-10T12:13:36.230Z,967.89
2019-03-10T12:14:36.208Z,967.82
2019-03-10T12:15:36.165Z,967.86
2019-03-10T12:16:36.132Z,967.67
2019-03-10T12:17:36.633Z,967.41
2019-03-10T12:18:36.075Z,967.04
2019-03-10T12:19:36.027Z,967.21
2019-03-10T12:20:36.012Z,967.12
2019-03-10T12:21:35.983Z,966.99
2019-03-10T12:22:35.959Z,966.97
2019-03-10T12:23:36.004Z,967.11
2019-03-10T12:24:35.867Z,967.08
2019-03-10T12:25:35.842Z,967.15
2019-03-10T12:26:35.818Z,967.15
2019-03-10T12:27:35.784Z,967.23